Hawaii National Park, Hawaii
Current Conditions -  °F | °C
As of 12:53 PM on Friday 28 Nov 2014 (Local Time) from PHTO Reporting Station
Broken Clouds Broken Clouds  
Wind Chill: 80°   Ceiling: 4400
Heat Index: 82°   Visibility: 10mi
Dew Point: 66°   Wind: 13mph
Humidity: 62%   Direction: 50°NE
Pressure: 30"   Gusts: NA
Location:  19.4324°N, 155.258°W
Report Text: PHTO 282253Z 05011KT 10SM BKN044 27/19 A3000 RMK AO2 SLP157 T02670189 $
Loading
Personal Weather Stations






























Interactive Weather Map New forecast layout! Learn more

10-Day Weather Forecast

Advertisements
Track Severe Weather on mobile